Time;durP1;ratioP1;P1;durP2;ratioP2;P2;SDS_P1;SDS_P2;PMS_P1;PMS_P2;Temp;Humidity;BMP_temperature;BMP_pressure;BME280_temperature;BME280_humidity;BME280_pressure;Samples;Min_cycle;Max_cycle;Signal;HPM_P1;HPM_P2
2022/10/14 00:01:31;;;;;;;23.92;16.77;;;;;;;9.51;85.25;101062.03;7395121;19;20081;-69
2022/10/14 00:04:01;;;;;;;27.15;16.38;;;;;;;9.48;85.27;101057.72;7396355;19;20014;-69
2022/10/14 00:06:31;;;;;;;25.50;18.35;;;;;;;9.46;85.33;101056.84;7396408;19;20082;-69
2022/10/14 00:09:07;;;;;;;23.10;16.73;;;;;;;9.42;85.50;101060.41;7396568;19;20026;-69
2022/10/14 00:11:37;;;;;;;22.90;16.65;;;;;;;9.39;85.60;101058.69;7395214;19;20098;-69
2022/10/14 00:14:09;;;;;;;29.80;17.45;;;;;;;9.37;85.59;101055.22;7394051;19;20070;-69
2022/10/14 00:16:39;;;;;;;23.70;16.95;;;;;;;9.34;85.72;101060.50;7396501;19;20014;-69
2022/10/14 00:19:08;;;;;;;24.55;16.55;;;;;;;9.30;85.81;101056.16;7396060;19;20086;-68
2022/10/14 00:21:38;;;;;;;23.60;16.63;;;;;;;9.27;85.86;101054.44;7394079;19;20044;-69
2022/10/14 00:24:12;;;;;;;23.02;15.65;;;;;;;9.25;85.76;101063.19;7396250;19;20035;-68
2022/10/14 00:26:41;;;;;;;21.83;14.93;;;;;;;9.21;85.79;101066.75;7396326;19;20086;-68
2022/10/14 00:29:13;;;;;;;23.75;16.30;;;;;;;9.18;85.80;101064.16;7395326;19;20907;-68
2022/10/14 00:31:41;;;;;;;21.95;16.35;;;;;;;9.12;85.74;101063.34;7394119;19;20435;-69
2022/10/14 00:34:11;;;;;;;27.70;16.77;;;;;;;9.10;85.82;101061.63;7393386;19;20090;-69
2022/10/14 00:36:41;;;;;;;24.35;17.08;;;;;;;9.07;85.85;101061.66;7395603;19;20014;-68
2022/10/14 00:39:12;;;;;;;21.50;16.60;;;;;;;9.02;85.87;101064.31;7395422;19;20025;-68
2022/10/14 00:41:42;;;;;;;20.20;15.43;;;;;;;9.00;85.95;101062.59;7393848;19;20086;-69
2022/10/14 00:44:45;;;;;;;23.88;16.92;;;;;;;8.98;86.16;101061.75;7395304;19;20031;-69
2022/10/14 00:47:14;;;;;;;23.42;15.60;;;;;;;8.94;86.06;101058.31;7394755;19;20416;-69
2022/10/14 00:49:45;;;;;;;26.63;16.35;;;;;;;8.91;86.23;101061.81;7394423;19;20018;-69
2022/10/14 00:52:17;;;;;;;24.25;16.58;;;;;;;8.89;86.24;101058.34;7395643;19;20078;-69
2022/10/14 00:54:52;;;;;;;21.65;15.40;;;;;;;8.87;86.35;101052.28;7393677;19;20070;-69
2022/10/14 00:57:20;;;;;;;26.58;16.67;;;;;;;8.85;86.44;101064.50;7394767;19;20070;-69
2022/10/14 00:59:49;;;;;;;24.67;16.55;;;;;;;8.84;86.44;101062.75;7394173;19;20540;-69
2022/10/14 01:02:18;;;;;;;25.52;16.27;;;;;;;8.80;86.33;101064.53;7395729;19;20497;-69
2022/10/14 01:04:47;;;;;;;24.60;17.15;;;;;;;8.80;86.50;101071.50;7397206;19;20055;-70
2022/10/14 01:07:24;;;;;;;26.70;17.58;;;;;;;8.79;86.68;101069.78;7397398;19;20476;-68
2022/10/14 01:10:02;;;;;;;24.13;17.00;;;;;;;8.77;86.70;101064.56;7394989;19;20022;-68
2022/10/14 01:12:49;;;;;;;22.65;16.95;;;;;;;8.77;86.69;101061.94;7393018;19;20074;-68
2022/10/14 01:15:26;;;;;;;21.20;17.38;;;;;;;8.76;86.70;101057.59;7394729;19;20079;-68
2022/10/14 01:18:03;;;;;;;28.05;18.98;;;;;;;8.75;86.73;101055.84;7394886;19;20082;-68
2022/10/14 01:20:48;;;;;;;25.60;18.92;;;;;;;8.76;86.83;101056.75;7394328;19;20022;-68
2022/10/14 01:23:44;;;;;;;24.52;18.33;;;;;;;8.74;86.92;101048.03;7402220;19;20073;-68
2022/10/14 01:26:30;;;;;;;28.80;19.02;;;;;;;8.77;86.86;101042.75;7401385;19;20480;-67
2022/10/14 01:29:16;;;;;;;22.48;16.45;;;;;;;8.77;86.92;101045.38;7401417;19;20556;-67
2022/10/14 01:31:52;;;;;;;26.35;18.15;;;;;;;8.78;87.00;101058.47;7398765;19;20082;-68
2022/10/14 01:34:32;;;;;;;25.55;19.40;;;;;;;8.78;86.97;101044.50;7398848;19;20066;-68
2022/10/14 01:37:05;;;;;;;24.58;17.85;;;;;;;8.80;86.92;101055.81;7401058;19;20414;-67
2022/10/14 01:39:39;;;;;;;29.65;18.98;;;;;;;8.82;87.11;101061.91;7398140;19;20078;-68
2022/10/14 01:42:14;;;;;;;24.35;17.45;;;;;;;8.84;87.11;101054.91;7400912;19;20090;-68
2022/10/14 01:44:47;;;;;;;25.50;17.10;;;;;;;8.85;87.23;101046.19;7401630;19;20078;-68
2022/10/14 01:47:21;;;;;;;29.40;18.33;;;;;;;8.88;87.51;101046.13;7398721;19;20074;-69
2022/10/14 01:49:54;;;;;;;;;;;;;;;8.91;87.52;101045.22;7399084;19;20082;-69
2022/10/14 01:52:27;;;;;;;26.30;17.48;;;;;;;8.92;87.22;101040.00;7400543;19;20405;-68
2022/10/14 01:55:01;;;;;;;27.55;18.25;;;;;;;8.95;87.50;101037.34;7398008;19;20011;-70
2022/10/14 01:57:34;;;;;;;30.10;18.58;;;;;;;8.99;87.48;101032.94;7401120;19;20015;-69
2022/10/14 02:00:04;;;;;;;30.83;18.83;;;;;;;9.00;87.59;101039.03;7400653;19;20086;-70
2022/10/14 02:02:38;;;;;;;28.58;18.60;;;;;;;9.05;87.70;101040.75;7400902;19;20014;-70
2022/10/14 02:05:12;;;;;;;27.92;19.45;;;;;;;9.08;87.69;101029.38;7401086;19;20019;-70
2022/10/14 02:07:44;;;;;;;26.92;18.55;;;;;;;9.11;87.88;101032.81;7398083;19;20070;-69
2022/10/14 02:10:20;;;;;;;35.65;20.42;;;;;;;9.14;87.92;101029.31;7399777;19;20083;-71
2022/10/14 02:13:02;;;;;;;25.55;18.10;;;;;;;9.18;88.08;101027.53;7400455;19;20070;-69
2022/10/14 02:15:35;;;;;;;30.02;19.98;;;;;;;9.20;88.10;101031.84;7397787;19;20018;-68
2022/10/14 02:18:16;;;;;;;30.15;17.95;;;;;;;9.23;88.24;101029.19;7400234;19;20094;-68
2022/10/14 02:20:51;;;;;;;29.90;17.58;;;;;;;9.26;88.21;101031.78;7398840;19;20022;-69
2022/10/14 02:23:24;;;;;;;28.85;19.75;;;;;;;9.29;88.25;101038.75;7400344;19;20019;-68
2022/10/14 02:25:54;;;;;;;26.75;18.52;;;;;;;9.33;88.34;101042.19;7399167;19;20082;-68
2022/10/14 02:28:27;;;;;;;28.33;18.25;;;;;;;9.35;88.19;101037.78;7399550;19;20032;-69
2022/10/14 02:30:59;;;;;;;26.45;17.23;;;;;;;9.38;88.41;101035.16;7397612;19;20018;-66
2022/10/14 02:33:36;;;;;;;33.72;18.90;;;;;;;9.40;88.39;101026.38;7396563;19;20014;-68
2022/10/14 02:36:07;;;;;;;28.05;19.25;;;;;;;9.42;88.43;101027.22;7398918;19;20186;-67
2022/10/14 02:38:36;;;;;;;26.85;19.02;;;;;;;9.42;88.43;101024.59;7398822;19;20587;-67
2022/10/14 02:41:09;;;;;;;28.52;18.48;;;;;;;9.47;88.45;101031.53;7397702;19;20089;-67
2022/10/14 02:43:37;;;;;;;29.60;18.93;;;;;;;9.48;88.50;101023.66;7399644;19;20082;-67
2022/10/14 02:46:07;;;;;;;33.03;18.65;;;;;;;9.49;88.55;101027.13;7399078;19;20066;-67
2022/10/14 02:48:38;;;;;;;25.30;18.15;;;;;;;9.51;88.52;101023.59;7396835;19;20078;-67
2022/10/14 02:51:06;;;;;;;26.98;19.35;;;;;;;9.54;88.55;101023.59;7396449;19;20093;-67
2022/10/14 02:53:35;;;;;;;33.08;20.42;;;;;;;9.56;88.73;101018.31;7396256;19;20553;-67
2022/10/14 02:56:03;;;;;;;26.38;19.27;;;;;;;9.57;88.68;101013.06;7398805;19;20092;-67
2022/10/14 02:58:32;;;;;;;28.20;19.60;;;;;;;9.60;88.71;101012.16;7398611;19;20022;-67
2022/10/14 03:01:00;;;;;;;31.25;20.83;;;;;;;9.61;88.85;101011.28;7396444;19;20086;-67
2022/10/14 03:03:28;;;;;;;30.48;20.05;;;;;;;9.63;88.80;101014.75;7396008;19;20082;-67
2022/10/14 03:06:00;;;;;;;32.72;19.02;;;;;;;9.62;88.97;101011.25;7395883;19;20552;-67
2022/10/14 03:08:28;;;;;;;32.60;20.15;;;;;;;9.65;88.96;101012.09;7398500;19;20070;-67
2022/10/14 03:10:57;;;;;;;33.65;20.52;;;;;;;9.66;89.02;101011.22;7396073;19;20437;-66
2022/10/14 03:13:25;;;;;;;30.77;19.38;;;;;;;9.67;88.89;101010.31;7397782;19;20015;-66
2022/10/14 03:15:54;;;;;;;34.90;20.88;;;;;;;9.68;88.98;101012.03;7398101;19;20023;-66
2022/10/14 03:18:23;;;;;;;31.50;22.40;;;;;;;9.68;89.05;101005.06;7397965;19;20081;-67
2022/10/14 03:20:51;;;;;;;35.33;21.00;;;;;;;9.69;89.17;101011.16;7396113;19;20018;-66
2022/10/14 03:23:22;;;;;;;30.50;20.02;;;;;;;9.68;89.14;101001.56;7397794;19;20082;-66
2022/10/14 03:25:51;;;;;;;30.65;20.08;;;;;;;9.69;89.43;101000.69;7396346;19;20087;-66
2022/10/14 03:28:19;;;;;;;30.80;20.17;;;;;;;9.69;89.26;101004.19;7397570;19;20070;-66
2022/10/14 03:30:48;;;;;;;30.42;20.83;;;;;;;9.69;89.35;100992.81;7395946;19;20082;-65
2022/10/14 03:33:29;;;;;;;32.40;20.00;;;;;;;9.70;89.49;101000.66;7394474;19;20070;-66
2022/10/14 03:35:57;;;;;;;31.00;20.65;;;;;;;9.71;89.48;100997.16;7395571;19;20098;-66
2022/10/14 03:38:28;;;;;;;33.03;21.50;;;;;;;9.72;89.45;101000.66;7394733;19;20086;-66
2022/10/14 03:40:57;;;;;;;34.70;22.08;;;;;;;9.70;89.43;100994.56;7395072;19;20019;-67
2022/10/14 03:43:27;;;;;;;31.58;22.52;;;;;;;9.72;89.52;100998.03;7393389;19;20022;-67
2022/10/14 03:45:55;;;;;;;32.45;22.23;;;;;;;9.72;89.62;100993.66;7396878;19;20111;-66
2022/10/14 03:48:24;;;;;;;34.10;22.08;;;;;;;9.74;89.63;100994.50;7394509;19;20446;-66
2022/10/14 03:50:52;;;;;;;26.63;20.05;;;;;;;9.74;89.57;101002.38;7395159;19;20082;-66
2022/10/14 03:53:21;;;;;;;31.35;20.08;;;;;;;9.76;89.53;100994.47;7396263;19;20099;-67
2022/10/14 03:55:52;;;;;;;33.72;19.88;;;;;;;9.77;89.63;100998.84;7396062;19;20023;-66
2022/10/14 03:58:20;;;;;;;34.55;21.05;;;;;;;9.77;89.71;100999.69;7396250;19;20070;-66
2022/10/14 04:00:49;;;;;;;33.20;19.55;;;;;;;9.78;89.66;100997.91;7394163;19;20540;-67
2022/10/14 04:03:17;;;;;;;29.42;20.27;;;;;;;9.79;89.70;100994.41;7396062;19;20082;-66
2022/10/14 04:05:46;;;;;;;34.28;20.90;;;;;;;9.80;89.80;100995.31;7395633;19;20484;-67
2022/10/14 04:08:14;;;;;;;32.30;21.25;;;;;;;9.80;89.68;100988.28;7395660;19;20015;-66
2022/10/14 04:10:43;;;;;;;35.17;23.13;;;;;;;9.79;89.98;100983.94;7394821;19;20090;-67
2022/10/14 04:13:14;;;;;;;31.05;20.38;;;;;;;9.80;89.98;100988.28;7396557;19;20039;-67
2022/10/14 04:15:42;;;;;;;32.10;20.77;;;;;;;9.81;90.09;100991.75;7394745;19;20073;-67
2022/10/14 04:18:11;;;;;;;39.78;22.52;;;;;;;9.82;90.07;100983.91;7395761;19;20074;-67
2022/10/14 04:20:39;;;;;;;34.63;20.98;;;;;;;9.82;90.22;100978.66;7394554;19;20082;-66
2022/10/14 04:23:08;;;;;;;34.75;20.88;;;;;;;9.83;90.61;100982.13;7395070;19;20084;-67
2022/10/14 04:25:39;;;;;;;31.05;20.45;;;;;;;9.82;90.42;100983.91;7395072;19;20499;-67
2022/10/14 04:28:07;;;;;;;33.30;20.77;;;;;;;9.84;90.42;100982.09;7393875;19;20106;-67
2022/10/14 04:30:39;;;;;;;30.48;19.77;;;;;;;9.84;90.53;100982.09;7393496;19;20544;-67
2022/10/14 04:33:07;;;;;;;29.90;20.10;;;;;;;9.83;90.55;100979.53;7393174;19;20026;-67
2022/10/14 04:35:35;;;;;;;32.55;21.30;;;;;;;9.82;90.58;100978.66;7391921;19;20078;-67
2022/10/14 04:38:04;;;;;;;29.45;20.00;;;;;;;9.82;90.48;100983.03;7393713;19;20082;-67
2022/10/14 04:40:32;;;;;;;32.55;21.17;;;;;;;9.83;90.47;100988.25;7392612;19;20082;-67
2022/10/14 04:43:01;;;;;;;34.92;21.55;;;;;;;9.84;90.50;100984.72;7392604;19;20552;-67
2022/10/14 04:45:29;;;;;;;36.92;22.25;;;;;;;9.83;90.42;100976.91;7394976;19;20031;-67
2022/10/14 04:48:00;;;;;;;33.60;22.67;;;;;;;9.84;90.71;100982.09;7393354;19;20078;-67
2022/10/14 04:50:29;;;;;;;36.97;22.75;;;;;;;9.84;90.51;100976.00;7393288;19;20500;-66
2022/10/14 04:52:57;;;;;;;32.58;21.38;;;;;;;9.85;90.44;100977.75;7394204;19;20022;-65
2022/10/14 04:55:26;;;;;;;39.50;20.88;;;;;;;9.85;90.53;100973.38;7392665;19;20559;-66
2022/10/14 04:57:54;;;;;;;33.00;21.92;;;;;;;9.87;90.54;100968.09;7401891;19;20094;-66
2022/10/14 05:00:22;;;;;;;33.30;21.40;;;;;;;9.86;90.53;100976.88;7398267;19;20536;-64
2022/10/14 05:02:51;;;;;;;35.88;23.42;;;;;;;9.86;90.50;100974.25;7397653;19;20035;-66
2022/10/14 05:05:22;;;;;;;39.30;23.88;;;;;;;9.87;90.64;100970.72;7399342;19;20093;-67
2022/10/14 05:07:50;;;;;;;31.92;23.02;;;;;;;9.85;90.71;100968.13;7401093;19;20078;-66
2022/10/14 05:10:19;;;;;;;34.08;22.90;;;;;;;9.86;90.67;100971.63;7399706;19;20022;-66
2022/10/14 05:12:47;;;;;;;33.60;23.73;;;;;;;9.84;90.54;100963.75;7401047;19;20035;-65
2022/10/14 05:15:16;;;;;;;35.55;23.83;;;;;;;9.86;90.71;100961.16;7398841;19;20409;-67
2022/10/14 05:17:46;;;;;;;33.88;21.83;;;;;;;9.85;90.75;100959.41;7400210;19;20015;-66
2022/10/14 05:20:14;;;;;;;37.53;23.92;;;;;;;9.86;90.79;100956.75;7398906;19;20019;-67
2022/10/14 05:22:46;;;;;;;37.25;22.95;;;;;;;9.87;90.63;100960.22;7398750;19;20037;-67
2022/10/14 05:25:15;;;;;;;33.17;22.48;;;;;;;9.87;90.70;100955.88;7402786;19;20025;-67
2022/10/14 05:27:43;;;;;;;33.40;21.85;;;;;;;9.88;90.68;100957.63;7401717;19;20011;-67
2022/10/14 05:30:13;;;;;;;37.75;21.73;;;;;;;9.89;90.71;100959.31;7398248;19;20078;-65
2022/10/14 05:32:42;;;;;;;34.60;22.90;;;;;;;9.88;90.84;100962.84;7401530;19;20102;-64
2022/10/14 05:35:11;;;;;;;34.05;22.20;;;;;;;9.89;90.79;100955.84;7397046;19;20082;-65
2022/10/14 05:37:40;;;;;;;35.35;23.38;;;;;;;9.90;90.67;100950.56;7400922;19;20034;-66
2022/10/14 05:40:12;;;;;;;41.05;23.23;;;;;;;9.92;90.82;100950.53;7400458;19;20022;-66
2022/10/14 05:42:41;;;;;;;36.40;22.13;;;;;;;9.92;90.70;100953.16;7397875;19;20484;-64
2022/10/14 05:45:10;;;;;;;38.92;23.13;;;;;;;9.92;90.77;100948.81;7400665;19;20508;-66
2022/10/14 05:47:39;;;;;;;35.72;23.58;;;;;;;9.94;90.79;100961.88;7401389;19;20010;-66
2022/10/14 05:50:08;;;;;;;36.17;24.58;;;;;;;9.93;90.92;100952.28;7400076;19;20081;-66
2022/10/14 05:52:38;;;;;;;36.42;23.35;;;;;;;9.94;90.72;100956.63;7398046;19;20018;-65
2022/10/14 05:55:08;;;;;;;34.40;22.55;;;;;;;9.97;90.86;100953.09;7399209;19;20019;-66
2022/10/14 05:57:41;;;;;;;35.08;22.65;;;;;;;9.97;90.80;100961.84;7398139;19;20014;-66
2022/10/14 06:00:12;;;;;;;33.35;20.95;;;;;;;9.98;90.80;100955.69;7400188;19;20022;-66
2022/10/14 06:02:41;;;;;;;34.00;22.55;;;;;;;9.99;90.93;100954.81;7397222;19;20489;-65
2022/10/14 06:05:10;;;;;;;36.10;23.25;;;;;;;10.01;90.90;100954.78;7396764;19;20010;-65
2022/10/14 06:07:38;;;;;;;36.55;23.95;;;;;;;10.01;90.79;100952.16;7399089;19;20027;-65
2022/10/14 06:10:09;;;;;;;38.25;22.58;;;;;;;10.02;90.97;100956.50;7397334;19;20039;-66
2022/10/14 06:12:40;;;;;;;131.27;75.55;;;;;;;10.05;90.95;100951.25;7400247;19;20018;-66
2022/10/14 06:15:09;;;;;;;45.65;28.88;;;;;;;10.06;91.03;100951.19;7397069;19;20506;-65
2022/10/14 06:17:38;;;;;;;35.88;23.00;;;;;;;10.07;90.99;100952.94;7400008;19;20497;-66
2022/10/14 06:20:07;;;;;;;30.52;20.73;;;;;;;10.10;91.01;100959.88;7399287;19;20090;-65
2022/10/14 06:22:36;;;;;;;35.92;22.20;;;;;;;10.10;91.01;100952.88;7398977;19;20081;-65
2022/10/14 06:25:04;;;;;;;32.08;20.60;;;;;;;10.13;90.89;100953.72;7398935;19;20078;-66
2022/10/14 06:27:33;;;;;;;34.22;20.35;;;;;;;10.15;90.91;100955.44;7399114;19;20031;-65
2022/10/14 06:30:05;;;;;;;31.17;19.85;;;;;;;10.16;90.77;100962.41;7398146;19;20168;-64
2022/10/14 06:32:33;;;;;;;34.35;21.60;;;;;;;10.18;90.91;100965.00;7397531;19;20078;-65
2022/10/14 06:35:02;;;;;;;35.50;21.55;;;;;;;10.20;90.85;100963.22;7396021;19;20083;-65
2022/10/14 06:37:30;;;;;;;31.58;20.38;;;;;;;10.22;91.01;100962.31;7398638;19;20090;-65
2022/10/14 06:39:59;;;;;;;33.03;20.92;;;;;;;10.25;90.87;100964.88;7397231;19;20035;-66
2022/10/14 06:42:28;;;;;;;31.20;20.45;;;;;;;10.26;90.68;100966.59;7397333;19;20638;-65
2022/10/14 06:44:56;;;;;;;29.63;21.05;;;;;;;10.29;90.83;100976.19;7398894;19;20018;-66
2022/10/14 06:47:27;;;;;;;34.83;22.00;;;;;;;10.31;90.86;100970.91;7396257;19;20070;-64
2022/10/14 06:49:56;;;;;;;36.45;22.67;;;;;;;10.31;90.72;100971.75;7398762;19;20074;-65
2022/10/14 06:52:24;;;;;;;34.60;21.35;;;;;;;10.33;90.83;100979.63;7398046;19;20413;-66
2022/10/14 06:54:53;;;;;;;36.40;22.02;;;;;;;10.34;90.75;100970.88;7398022;19;20086;-65
2022/10/14 06:57:21;;;;;;;33.60;23.20;;;;;;;10.35;90.89;100970.84;7398439;19;20078;-65
2022/10/14 06:59:49;;;;;;;36.30;23.17;;;;;;;10.38;90.75;100972.56;7396559;19;20087;-66
2022/10/14 07:02:18;;;;;;;35.83;21.88;;;;;;;10.41;90.79;100972.50;7397978;19;20094;-66
2022/10/14 07:04:49;;;;;;;35.80;22.90;;;;;;;10.42;90.88;100980.34;7396299;19;20434;-66
2022/10/14 07:07:17;;;;;;;34.22;21.48;;;;;;;10.45;90.83;100975.94;7397659;19;20513;-65
2022/10/14 07:09:46;;;;;;;32.80;22.15;;;;;;;10.47;90.90;100977.66;7397819;19;20085;-65
2022/10/14 07:12:14;;;;;;;33.35;23.58;;;;;;;10.51;90.92;100970.59;7395776;19;20177;-66
2022/10/14 07:14:43;;;;;;;33.67;22.42;;;;;;;10.53;90.97;100982.78;7395375;19;20014;-66
2022/10/14 07:17:11;;;;;;;33.15;22.55;;;;;;;10.55;90.92;100974.88;7397065;19;20094;-64
2022/10/14 07:19:40;;;;;;;37.40;23.60;;;;;;;10.58;90.81;100973.06;7395260;19;20322;-66
2022/10/14 07:22:11;;;;;;;33.05;23.70;;;;;;;10.63;90.87;100977.34;7397386;19;20070;-66
2022/10/14 07:24:39;;;;;;;40.75;24.20;;;;;;;10.64;90.80;100979.97;7397126;19;20078;-65
2022/10/14 07:27:10;;;;;;;70.63;43.67;;;;;;;10.68;90.87;100986.00;7397108;19;20022;-66
2022/10/14 07:29:39;;;;;;;55.20;31.65;;;;;;;10.71;90.93;100983.34;7396461;19;20018;-66
2022/10/14 07:32:07;;;;;;;41.78;25.58;;;;;;;10.75;91.04;100982.38;7396684;19;20086;-66
2022/10/14 07:34:36;;;;;;;41.65;25.98;;;;;;;10.79;91.00;100984.06;7394804;19;20010;-65
2022/10/14 07:37:05;;;;;;;39.35;23.98;;;;;;;10.86;90.96;100985.69;7396744;19;20085;-65
2022/10/14 07:39:36;;;;;;;46.58;27.08;;;;;;;10.93;90.86;100986.41;7395066;19;20074;-65
2022/10/14 07:42:04;;;;;;;49.15;29.35;;;;;;;11.00;90.79;100984.56;7395197;19;20019;-65
2022/10/14 07:44:33;;;;;;;46.70;30.00;;;;;;;11.08;90.64;100985.25;7394409;19;20548;-66
2022/10/14 07:47:02;;;;;;;46.80;31.95;;;;;;;11.15;90.50;100984.25;7396095;19;20082;-64
2022/10/14 07:49:30;;;;;;;41.40;28.40;;;;;;;11.23;90.43;100984.09;7396567;19;20014;-64
2022/10/14 07:51:59;;;;;;;36.90;26.67;;;;;;;11.30;90.47;100984.81;7396559;19;20082;-66
2022/10/14 07:54:29;;;;;;;34.75;22.77;;;;;;;11.37;90.26;100984.69;7396638;19;20424;-65
2022/10/14 07:57:01;;;;;;;36.58;21.85;;;;;;;11.44;90.13;100993.28;7395204;19;20018;-66
2022/10/14 07:59:29;;;;;;;30.67;21.13;;;;;;;11.51;89.72;100989.63;7396539;19;20082;-66
2022/10/14 08:01:58;;;;;;;32.65;23.02;;;;;;;11.58;89.68;100985.94;7395247;19;20082;-65
2022/10/14 08:04:27;;;;;;;31.83;20.35;;;;;;;11.63;89.48;100987.63;7395444;19;20492;-64
2022/10/14 08:06:56;;;;;;;30.02;20.98;;;;;;;11.72;89.44;100987.41;7393737;19;20377;-65
2022/10/14 08:09:24;;;;;;;29.15;20.45;;;;;;;11.79;89.34;100991.66;7395667;19;20544;-65
2022/10/14 08:11:53;;;;;;;32.60;20.88;;;;;;;11.87;88.96;100994.94;7393858;19;20035;-65
2022/10/14 08:14:24;;;;;;;36.33;20.83;;;;;;;11.95;88.84;100980.78;7395106;19;20078;-66
2022/10/14 08:16:52;;;;;;;30.55;20.33;;;;;;;12.01;88.57;100983.28;7394960;19;20500;-65
2022/10/14 08:19:21;;;;;;;27.80;19.75;;;;;;;12.10;88.24;100982.19;7395625;19;20078;-65
2022/10/14 08:21:49;;;;;;;30.85;19.95;;;;;;;12.18;88.11;100985.50;7393537;19;20019;-65
2022/10/14 08:24:18;;;;;;;26.80;18.73;;;;;;;12.27;87.81;100984.41;7395913;19;20086;-69
2022/10/14 08:26:52;;;;;;;27.65;20.25;;;;;;;12.36;87.54;100985.03;7395589;19;20329;-65
2022/10/14 08:29:24;;;;;;;27.42;20.35;;;;;;;12.45;87.31;100976.06;7394953;19;20501;-66
2022/10/14 08:31:54;;;;;;;33.90;19.25;;;;;;;12.55;87.09;100974.91;7393776;19;20022;-66
2022/10/14 08:34:23;;;;;;;26.17;19.45;;;;;;;12.62;86.59;100970.34;7395152;19;20007;-66
2022/10/14 08:36:52;;;;;;;29.30;18.58;;;;;;;12.69;86.44;100971.91;7393761;19;20044;-65
2022/10/14 08:39:21;;;;;;;28.92;18.33;;;;;;;12.77;86.12;100968.22;7394659;19;20078;-66
2022/10/14 08:42:10;;;;;;;29.55;20.85;;;;;;;12.85;85.66;100967.09;7392803;19;20078;-65
2022/10/14 08:44:49;;;;;;;27.00;18.23;;;;;;;12.95;85.29;100965.03;7392854;19;20014;-66
2022/10/14 08:47:26;;;;;;;30.58;20.48;;;;;;;13.04;84.66;100966.56;7394654;19;20074;-66
2022/10/14 08:50:03;;;;;;;25.70;19.15;;;;;;;13.13;84.90;100966.31;7393704;19;20031;-65
2022/10/14 08:52:36;;;;;;;24.17;17.88;;;;;;;13.21;84.35;100958.19;7394534;19;20070;-65
2022/10/14 08:55:16;;;;;;;29.43;18.50;;;;;;;13.30;84.14;100951.78;7394163;19;20074;-65
2022/10/14 08:57:51;;;;;;;27.83;18.33;;;;;;;13.33;83.44;100951.69;7395370;19;20500;-65
2022/10/14 09:00:23;;;;;;;24.40;16.45;;;;;;;13.42;83.42;100950.56;7393967;19;20035;-65
2022/10/14 09:02:53;;;;;;;21.80;16.50;;;;;;;13.46;83.44;100950.44;7393243;19;20078;-65
2022/10/14 09:05:25;;;;;;;24.25;17.40;;;;;;;13.52;82.76;100957.28;7392529;19;20025;-65
2022/10/14 09:07:57;;;;;;;22.65;16.23;;;;;;;13.57;82.39;100957.16;7394216;19;20626;-65
2022/10/14 09:10:32;;;;;;;26.13;17.95;;;;;;;13.60;82.00;100946.53;7393567;19;20082;-65
2022/10/14 09:13:12;;;;;;;29.00;18.58;;;;;;;13.63;82.01;100944.63;7394497;19;20019;-66
2022/10/14 09:15:46;;;;;;;24.48;17.10;;;;;;;13.69;82.27;100935.69;7392784;19;20070;-66
2022/10/14 09:18:31;;;;;;;26.52;19.33;;;;;;;13.74;80.91;100946.94;7394616;19;20019;-64
2022/10/14 09:21:00;;;;;;;;;;;;;;;13.79;80.82;100941.53;7393282;19;20093;-64
2022/10/14 09:23:29;;;;;;;21.52;16.33;;;;;;;13.82;81.39;100941.41;7393643;19;19926;-65
2022/10/14 09:26:00;;;;;;;22.63;16.10;;;;;;;13.86;81.12;100948.31;7393645;19;20082;-66
2022/10/14 09:28:37;;;;;;;22.10;16.90;;;;;;;13.88;80.91;100935.94;7393347;19;20021;-66
2022/10/14 09:31:12;;;;;;;20.02;15.52;;;;;;;13.92;80.74;100934.94;7391740;19;20022;-65
2022/10/14 09:33:41;;;;;;;27.02;16.83;;;;;;;13.96;80.48;100941.84;7392970;19;20011;-65
2022/10/14 09:36:17;;;;;;;22.63;16.25;;;;;;;13.99;80.45;100941.75;7392080;19;20021;-66
2022/10/14 09:38:46;;;;;;;24.23;16.25;;;;;;;14.04;80.29;100938.97;7391050;19;20078;-65
2022/10/14 09:41:17;;;;;;;22.55;16.30;;;;;;;14.08;80.05;100935.31;7391731;19;20086;-66
2022/10/14 09:44:17;;;;;;;29.13;17.55;;;;;;;14.14;79.67;100931.56;7401197;19;20174;-64
2022/10/14 09:46:52;;;;;;;23.10;16.60;;;;;;;14.20;79.18;100935.81;7400131;19;20074;-66
2022/10/14 09:49:25;;;;;;;21.05;15.25;;;;;;;14.25;79.54;100931.22;7401233;19;20082;-65
2022/10/14 09:51:55;;;;;;;20.92;15.10;;;;;;;14.29;79.28;100938.13;7400793;19;20014;-66
2022/10/14 09:54:26;;;;;;;22.08;14.90;;;;;;;14.31;78.86;100928.38;7397267;19;20560;-66
2022/10/14 09:57:06;;;;;;;23.98;16.02;;;;;;;14.32;78.01;100933.59;7399161;19;20025;-66
2022/10/14 09:59:34;;;;;;;20.52;14.73;;;;;;;14.37;78.56;100932.56;7397319;19;20019;-65
2022/10/14 10:02:40;;;;;;;20.33;15.32;;;;;;;14.40;78.49;100920.13;7399818;19;20078;-65
2022/10/14 10:05:24;;;;;;;;;;;;;;;14.44;78.43;100924.38;7402286;19;20015;-65
2022/10/14 10:08:03;;;;;;;34.35;17.90;;;;;;;14.50;78.52;100916.25;7398285;19;19998;-66
2022/10/14 10:10:33;;;;;;;47.63;20.15;;;;;;;14.55;78.24;100921.38;7399057;19;20010;-67
2022/10/14 10:13:03;;;;;;;25.95;17.75;;;;;;;14.61;78.01;100913.25;7398033;19;20014;-66
2022/10/14 10:15:31;;;;;;;21.13;14.18;;;;;;;14.71;77.59;100915.56;7397238;19;20022;-65
2022/10/14 10:18:03;;;;;;;18.40;13.35;;;;;;;14.80;76.86;100908.19;7399802;19;20074;-66
2022/10/14 10:20:35;;;;;;;19.67;12.77;;;;;;;14.92;76.25;100913.94;7399001;19;20082;-66
2022/10/14 10:23:25;;;;;;;17.05;12.52;;;;;;;15.02;75.40;100902.09;7399236;19;20488;-65
2022/10/14 10:25:54;;;;;;;18.67;11.77;;;;;;;15.15;75.08;100913.94;7400074;19;20482;-65
2022/10/14 10:28:30;;;;;;;17.35;11.27;;;;;;;15.28;74.73;100914.31;7398154;19;20526;-65
2022/10/14 10:31:06;;;;;;;17.65;12.10;;;;;;;15.38;74.06;100904.25;7396553;19;20018;-64
2022/10/14 10:33:46;;;;;;;16.27;11.15;;;;;;;15.45;73.34;100903.06;7399688;19;20078;-64
2022/10/14 10:36:28;;;;;;;18.48;11.60;;;;;;;15.53;72.48;100902.78;7396881;19;20086;-66
2022/10/14 10:39:00;;;;;;;13.07;10.63;;;;;;;15.57;72.46;100909.66;7396555;19;20083;-67
2022/10/14 10:41:45;;;;;;;15.93;10.45;;;;;;;15.61;72.38;100907.75;7396306;19;20484;-66
2022/10/14 10:44:33;;;;;;;;;;;;;;;15.60;72.43;100903.41;7400000;19;20090;-65
2022/10/14 10:47:12;;;;;;;11.73;9.48;;;;;;;15.60;72.23;100908.69;7398981;19;19986;-65
2022/10/14 10:49:57;;;;;;;18.20;9.88;;;;;;;15.56;71.89;100900.00;7397769;19;20074;-66
2022/10/14 10:52:36;;;;;;;13.18;9.07;;;;;;;15.56;72.35;100901.81;7399182;19;20078;-67
2022/10/14 10:55:15;;;;;;;15.73;9.85;;;;;;;15.55;72.21;100897.44;7396532;19;20010;-66
2022/10/14 10:57:58;;;;;;;14.68;9.57;;;;;;;15.57;71.34;100891.16;7396762;19;20011;-66
2022/10/14 11:00:30;;;;;;;14.25;9.52;;;;;;;15.61;72.23;100894.53;7397371;19;20098;-65
2022/10/14 11:03:10;;;;;;;15.10;11.23;;;;;;;15.68;71.88;100890.69;7396245;19;20015;-66
2022/10/14 11:05:58;;;;;;;13.48;9.35;;;;;;;15.75;71.54;100880.75;7398636;19;20031;-65
2022/10/14 11:14:19;;;;;;;15.90;10.40;;;;;;;16.02;69.31;100878.75;7397821;19;20014;-66
2022/10/14 11:17:00;;;;;;;11.90;8.20;;;;;;;16.06;69.59;100879.50;7396456;19;20046;-65
2022/10/14 11:19:36;;;;;;;14.25;8.60;;;;;;;16.15;69.60;100883.53;7394433;19;20119;-67
2022/10/14 11:22:18;;;;;;;9.50;7.43;;;;;;;16.22;69.61;100866.47;7396354;19;20494;-65
2022/10/14 11:24:57;;;;;;;10.60;7.40;;;;;;;16.25;67.61;100864.56;7395299;19;20018;-65
2022/10/14 11:27:33;;;;;;;10.02;5.80;;;;;;;16.30;68.77;100866.97;7395004;19;20014;-65
2022/10/14 11:30:19;;;;;;;8.45;5.95;;;;;;;16.34;66.92;100862.41;7396076;19;20029;-68
2022/10/14 11:33:14;;;;;;;7.93;5.82;;;;;;;16.37;66.79;100862.28;7395845;19;20028;-64
2022/10/14 11:35:59;;;;;;;7.82;5.70;;;;;;;16.38;67.63;100856.91;7394544;19;20015;-66
2022/10/14 11:38:48;;;;;;;5.05;4.53;;;;;;;16.42;66.42;100860.28;7394730;19;20035;-66
2022/10/14 11:41:25;;;;;;;11.00;5.03;;;;;;;16.46;67.29;100851.28;7394261;19;20018;-66
2022/10/14 11:44:02;;;;;;;12.57;7.30;;;;;;;16.50;66.74;100844.06;7396745;19;20572;-65